sensor_id;sensor_type;location;lat;lon;timestamp;pressure;altitude;pressure_sealevel;temperature;humidity
28456;BME280;15682;56.742;38.866;2023-03-12T00:00:39;97440.0;;;0.5;97.1
28456;BME280;15682;56.742;38.866;2023-03-12T00:02:39;97440.0;;;0.5;97.3
28456;BME280;15682;56.742;38.866;2023-03-12T00:04:39;97430.0;;;0.5;97.3
28456;BME280;15682;56.742;38.866;2023-03-12T00:06:38;97430.0;;;0.6;97.3
28456;BME280;15682;56.742;38.866;2023-03-12T00:08:38;97410.0;;;0.6;97.3
28456;BME280;15682;56.742;38.866;2023-03-12T00:10:39;97410.0;;;0.6;97.3
28456;BME280;15682;56.742;38.866;2023-03-12T00:12:38;97410.0;;;0.6;97.3
28456;BME280;15682;56.742;38.866;2023-03-12T00:14:38;97400.0;;;0.6;97.3
28456;BME280;15682;56.742;38.866;2023-03-12T00:16:38;97380.0;;;0.6;97.7
28456;BME280;15682;56.742;38.866;2023-03-12T00:18:38;97380.0;;;0.6;97.7
28456;BME280;15682;56.742;38.866;2023-03-12T00:20:38;97380.0;;;0.7;97.7
28456;BME280;15682;56.742;38.866;2023-03-12T00:22:38;97370.0;;;0.7;97.9
28456;BME280;15682;56.742;38.866;2023-03-12T00:24:38;97370.0;;;0.7;97.9
28456;BME280;15682;56.742;38.866;2023-03-12T00:26:38;97370.0;;;0.7;97.9
28456;BME280;15682;56.742;38.866;2023-03-12T00:28:38;97370.0;;;0.7;97.9
28456;BME280;15682;56.742;38.866;2023-03-12T00:30:37;97360.0;;;0.9;97.9
28456;BME280;15682;56.742;38.866;2023-03-12T00:32:37;97360.0;;;0.9;97.6
28456;BME280;15682;56.742;38.866;2023-03-12T00:34:37;97360.0;;;0.9;97.6
28456;BME280;15682;56.742;38.866;2023-03-12T00:36:37;97360.0;;;0.9;97.6
28456;BME280;15682;56.742;38.866;2023-03-12T00:38:37;97350.0;;;0.9;97.6
28456;BME280;15682;56.742;38.866;2023-03-12T00:40:37;97340.0;;;0.9;97.6
28456;BME280;15682;56.742;38.866;2023-03-12T00:42:37;97340.0;;;0.9;98.0
28456;BME280;15682;56.742;38.866;2023-03-12T00:44:37;97340.0;;;0.9;98.0
28456;BME280;15682;56.742;38.866;2023-03-12T00:46:37;97340.0;;;0.9;98.0
28456;BME280;15682;56.742;38.866;2023-03-12T00:48:36;97340.0;;;0.9;98.0
28456;BME280;15682;56.742;38.866;2023-03-12T00:50:36;97330.0;;;1.0;98.0
28456;BME280;15682;56.742;38.866;2023-03-12T00:52:36;97330.0;;;1.0;97.9
28456;BME280;15682;56.742;38.866;2023-03-12T00:54:36;97310.0;;;1.0;97.9
28456;BME280;15682;56.742;38.866;2023-03-12T00:56:36;97310.0;;;1.0;97.9
28456;BME280;15682;56.742;38.866;2023-03-12T00:58:36;97310.0;;;1.0;97.9
28456;BME280;15682;56.742;38.866;2023-03-12T01:00:36;97290.0;;;1.0;98.2
28456;BME280;15682;56.742;38.866;2023-03-12T01:02:36;97290.0;;;1.1;98.3
28456;BME280;15682;56.742;38.866;2023-03-12T01:04:36;97290.0;;;1.1;98.3
28456;BME280;15682;56.742;38.866;2023-03-12T01:06:36;97290.0;;;1.1;98.3
28456;BME280;15682;56.742;38.866;2023-03-12T01:08:36;97280.0;;;1.1;98.7
28456;BME280;15682;56.742;38.866;2023-03-12T01:10:39;97280.0;;;1.2;98.7
28456;BME280;15682;56.742;38.866;2023-03-12T01:12:35;97260.0;;;1.1;98.9
28456;BME280;15682;56.742;38.866;2023-03-12T01:14:35;97260.0;;;1.1;98.9
28456;BME280;15682;56.742;38.866;2023-03-12T01:16:35;97260.0;;;1.1;98.9
28456;BME280;15682;56.742;38.866;2023-03-12T01:18:35;97260.0;;;1.1;99.2
28456;BME280;15682;56.742;38.866;2023-03-12T01:20:35;97260.0;;;1.1;99.2
28456;BME280;15682;56.742;38.866;2023-03-12T01:22:35;97250.0;;;1.1;99.5
28456;BME280;15682;56.742;38.866;2023-03-12T01:24:35;97240.0;;;1.1;99.5
28456;BME280;15682;56.742;38.866;2023-03-12T01:26:35;97240.0;;;1.1;99.8
28456;BME280;15682;56.742;38.866;2023-03-12T01:28:34;97240.0;;;1.1;99.8
28456;BME280;15682;56.742;38.866;2023-03-12T01:30:34;97240.0;;;1.1;99.8
28456;BME280;15682;56.742;38.866;2023-03-12T01:32:34;97230.0;;;1.3;99.8
28456;BME280;15682;56.742;38.866;2023-03-12T01:34:34;97230.0;;;1.3;99.8
28456;BME280;15682;56.742;38.866;2023-03-12T01:36:34;97230.0;;;1.3;99.8
28456;BME280;15682;56.742;38.866;2023-03-12T01:38:34;97230.0;;;1.3;99.8
28456;BME280;15682;56.742;38.866;2023-03-12T01:40:34;97230.0;;;1.3;99.8
28456;BME280;15682;56.742;38.866;2023-03-12T01:42:34;97220.0;;;1.4;99.4
28456;BME280;15682;56.742;38.866;2023-03-12T01:44:49;97210.0;;;1.4;99.4
28456;BME280;15682;56.742;38.866;2023-03-12T01:46:35;97210.0;;;1.4;99.4
28456;BME280;15682;56.742;38.866;2023-03-12T01:48:38;97200.0;;;1.4;99.4
28456;BME280;15682;56.742;38.866;2023-03-12T01:50:34;97200.0;;;1.5;99.4
28456;BME280;15682;56.742;38.866;2023-03-12T01:52:35;97190.0;;;1.5;99.5
28456;BME280;15682;56.742;38.866;2023-03-12T01:54:38;97190.0;;;1.5;99.5
28456;BME280;15682;56.742;38.866;2023-03-12T01:56:35;97190.0;;;1.5;99.5
28456;BME280;15682;56.742;38.866;2023-03-12T01:58:36;97190.0;;;1.7;99.5
28456;BME280;15682;56.742;38.866;2023-03-12T02:00:33;97180.0;;;1.7;99.5
28456;BME280;15682;56.742;38.866;2023-03-12T02:02:34;97180.0;;;1.8;99.5
28456;BME280;15682;56.742;38.866;2023-03-12T02:04:34;97170.0;;;1.8;99.5
28456;BME280;15682;56.742;38.866;2023-03-12T02:06:37;97170.0;;;1.8;99.5
28456;BME280;15682;56.742;38.866;2023-03-12T02:08:37;97170.0;;;1.9;99.5
28456;BME280;15682;56.742;38.866;2023-03-12T02:10:33;97160.0;;;1.9;99.5
28456;BME280;15682;56.742;38.866;2023-03-12T02:12:33;97150.0;;;2.1;99.5
28456;BME280;15682;56.742;38.866;2023-03-12T02:14:33;97150.0;;;2.1;99.2
28456;BME280;15682;56.742;38.866;2023-03-12T02:16:32;97140.0;;;2.0;99.2
28456;BME280;15682;56.742;38.866;2023-03-12T02:18:33;97140.0;;;2.0;99.2
28456;BME280;15682;56.742;38.866;2023-03-12T02:20:38;97140.0;;;2.0;99.2
28456;BME280;15682;56.742;38.866;2023-03-12T02:22:34;97140.0;;;2.0;99.3
28456;BME280;15682;56.742;38.866;2023-03-12T02:24:35;97140.0;;;2.0;99.3
28456;BME280;15682;56.742;38.866;2023-03-12T02:26:32;97130.0;;;2.0;99.3
28456;BME280;15682;56.742;38.866;2023-03-12T02:28:33;97130.0;;;2.0;99.3
28456;BME280;15682;56.742;38.866;2023-03-12T02:30:32;97130.0;;;2.0;99.8
28456;BME280;15682;56.742;38.866;2023-03-12T02:32:34;97120.0;;;2.0;99.9
28456;BME280;15682;56.742;38.866;2023-03-12T02:34:32;97110.0;;;1.9;99.9
28456;BME280;15682;56.742;38.866;2023-03-12T02:36:32;97110.0;;;1.9;99.9
28456;BME280;15682;56.742;38.866;2023-03-12T02:38:36;97110.0;;;1.9;99.9
28456;BME280;15682;56.742;38.866;2023-03-12T02:40:35;97110.0;;;1.9;99.9
28456;BME280;15682;56.742;38.866;2023-03-12T02:42:32;97100.0;;;2.0;99.9
28456;BME280;15682;56.742;38.866;2023-03-12T02:44:32;97100.0;;;2.0;99.9
28456;BME280;15682;56.742;38.866;2023-03-12T02:46:34;97090.0;;;2.0;99.9
28456;BME280;15682;56.742;38.866;2023-03-12T02:48:31;97090.0;;;2.0;99.9
28456;BME280;15682;56.742;38.866;2023-03-12T02:50:31;97080.0;;;2.0;99.9
28456;BME280;15682;56.742;38.866;2023-03-12T02:52:31;97080.0;;;2.0;99.8
28456;BME280;15682;56.742;38.866;2023-03-12T02:54:31;97080.0;;;2.0;99.8
28456;BME280;15682;56.742;38.866;2023-03-12T02:56:31;97080.0;;;2.0;99.8
28456;BME280;15682;56.742;38.866;2023-03-12T02:58:31;97060.0;;;2.0;99.8
28456;BME280;15682;56.742;38.866;2023-03-12T03:00:31;97070.0;;;2.0;99.8
28456;BME280;15682;56.742;38.866;2023-03-12T03:02:31;97070.0;;;2.1;99.6
28456;BME280;15682;56.742;38.866;2023-03-12T03:04:30;97060.0;;;2.1;99.6
28456;BME280;15682;56.742;38.866;2023-03-12T03:06:31;97060.0;;;2.1;99.3
28456;BME280;15682;56.742;38.866;2023-03-12T03:08:30;97060.0;;;2.1;99.3
28456;BME280;15682;56.742;38.866;2023-03-12T03:10:30;97060.0;;;2.1;99.3
28456;BME280;15682;56.742;38.866;2023-03-12T03:12:31;97060.0;;;2.2;99.1
28456;BME280;15682;56.742;38.866;2023-03-12T03:14:30;97060.0;;;2.2;99.1
28456;BME280;15682;56.742;38.866;2023-03-12T03:16:30;97050.0;;;2.2;99.1
28456;BME280;15682;56.742;38.866;2023-03-12T03:18:30;97050.0;;;2.3;99.1
28456;BME280;15682;56.742;38.866;2023-03-12T03:20:30;97040.0;;;2.3;98.8
28456;BME280;15682;56.742;38.866;2023-03-12T03:22:30;97030.0;;;2.3;98.8
28456;BME280;15682;56.742;38.866;2023-03-12T03:24:30;97030.0;;;2.3;98.8
28456;BME280;15682;56.742;38.866;2023-03-12T03:26:30;97030.0;;;2.3;98.8
28456;BME280;15682;56.742;38.866;2023-03-12T03:28:30;97030.0;;;2.3;98.8
28456;BME280;15682;56.742;38.866;2023-03-12T03:30:29;97030.0;;;2.4;98.8
28456;BME280;15682;56.742;38.866;2023-03-12T03:32:29;97030.0;;;2.4;99.0
28456;BME280;15682;56.742;38.866;2023-03-12T03:34:29;97020.0;;;2.3;99.0
28456;BME280;15682;56.742;38.866;2023-03-12T03:36:29;97020.0;;;2.3;99.4
28456;BME280;15682;56.742;38.866;2023-03-12T03:38:30;97010.0;;;2.4;99.4
28456;BME280;15682;56.742;38.866;2023-03-12T03:40:29;97010.0;;;2.4;99.4
28456;BME280;15682;56.742;38.866;2023-03-12T03:42:29;97010.0;;;2.4;99.5
28456;BME280;15682;56.742;38.866;2023-03-12T03:44:29;97000.0;;;2.4;99.5
28456;BME280;15682;56.742;38.866;2023-03-12T03:46:29;97000.0;;;2.4;99.5
28456;BME280;15682;56.742;38.866;2023-03-12T03:48:29;96990.0;;;2.4;99.5
28456;BME280;15682;56.742;38.866;2023-03-12T03:50:30;96990.0;;;2.4;99.9
28456;BME280;15682;56.742;38.866;2023-03-12T03:52:30;96980.0;;;2.5;100.0
28456;BME280;15682;56.742;38.866;2023-03-12T03:54:29;96980.0;;;2.5;100.0
28456;BME280;15682;56.742;38.866;2023-03-12T03:56:29;96980.0;;;2.5;100.0
28456;BME280;15682;56.742;38.866;2023-03-12T03:58:28;96970.0;;;2.5;100.0
28456;BME280;15682;56.742;38.866;2023-03-12T04:00:28;96970.0;;;2.5;100.0
28456;BME280;15682;56.742;38.866;2023-03-12T04:02:28;96970.0;;;2.5;100.0
28456;BME280;15682;56.742;38.866;2023-03-12T04:04:28;96970.0;;;2.5;100.0
28456;BME280;15682;56.742;38.866;2023-03-12T04:06:28;96970.0;;;2.6;100.0
28456;BME280;15682;56.742;38.866;2023-03-12T04:08:29;96960.0;;;2.6;100.0
28456;BME280;15682;56.742;38.866;2023-03-12T04:10:29;96960.0;;;2.6;100.0
28456;BME280;15682;56.742;38.866;2023-03-12T04:12:28;96950.0;;;2.7;100.0
28456;BME280;15682;56.742;38.866;2023-03-12T04:14:28;96940.0;;;2.7;100.0
28456;BME280;15682;56.742;38.866;2023-03-12T04:16:28;96940.0;;;2.7;100.0
28456;BME280;15682;56.742;38.866;2023-03-12T04:18:28;96940.0;;;2.7;100.0
28456;BME280;15682;56.742;38.866;2023-03-12T04:20:28;96930.0;;;2.8;100.0
28456;BME280;15682;56.742;38.866;2023-03-12T04:22:28;96920.0;;;2.8;99.8
28456;BME280;15682;56.742;38.866;2023-03-12T04:24:28;96920.0;;;2.8;99.8
28456;BME280;15682;56.742;38.866;2023-03-12T04:26:28;96920.0;;;2.8;99.8
28456;BME280;15682;56.742;38.866;2023-03-12T04:28:28;96920.0;;;2.8;99.8
28456;BME280;15682;56.742;38.866;2023-03-12T04:30:28;96910.0;;;2.8;99.8
28456;BME280;15682;56.742;38.866;2023-03-12T04:32:28;96910.0;;;2.9;100.0
28456;BME280;15682;56.742;38.866;2023-03-12T04:34:28;96910.0;;;2.9;100.0
28456;BME280;15682;56.742;38.866;2023-03-12T04:36:28;96910.0;;;2.9;100.0
28456;BME280;15682;56.742;38.866;2023-03-12T04:38:28;96900.0;;;2.9;100.0
28456;BME280;15682;56.742;38.866;2023-03-12T04:40:28;96900.0;;;2.9;100.0
28456;BME280;15682;56.742;38.866;2023-03-12T04:42:27;96900.0;;;2.9;100.0
28456;BME280;15682;56.742;38.866;2023-03-12T04:44:27;96890.0;;;2.9;100.0
28456;BME280;15682;56.742;38.866;2023-03-12T04:46:27;96890.0;;;2.9;100.0
28456;BME280;15682;56.742;38.866;2023-03-12T04:48:27;96890.0;;;2.9;100.0
28456;BME280;15682;56.742;38.866;2023-03-12T04:50:27;96890.0;;;3.0;100.0
28456;BME280;15682;56.742;38.866;2023-03-12T04:52:27;96890.0;;;3.0;99.9
28456;BME280;15682;56.742;38.866;2023-03-12T04:54:27;96890.0;;;3.0;99.9
28456;BME280;15682;56.742;38.866;2023-03-12T04:56:27;96890.0;;;3.0;99.9
28456;BME280;15682;56.742;38.866;2023-03-12T04:58:27;96890.0;;;3.0;99.9
28456;BME280;15682;56.742;38.866;2023-03-12T05:00:27;96890.0;;;3.0;99.9
28456;BME280;15682;56.742;38.866;2023-03-12T05:02:27;96880.0;;;3.0;100.0
28456;BME280;15682;56.742;38.866;2023-03-12T05:04:27;96880.0;;;3.0;100.0
28456;BME280;15682;56.742;38.866;2023-03-12T05:06:27;96880.0;;;3.1;100.0
28456;BME280;15682;56.742;38.866;2023-03-12T05:08:27;96880.0;;;3.1;100.0
28456;BME280;15682;56.742;38.866;2023-03-12T05:10:27;96880.0;;;3.1;100.0
28456;BME280;15682;56.742;38.866;2023-03-12T05:12:27;96880.0;;;3.1;100.0
28456;BME280;15682;56.742;38.866;2023-03-12T05:14:27;96870.0;;;3.1;100.0
28456;BME280;15682;56.742;38.866;2023-03-12T05:16:27;96860.0;;;3.1;100.0
28456;BME280;15682;56.742;38.866;2023-03-12T05:18:27;96850.0;;;3.1;100.0
28456;BME280;15682;56.742;38.866;2023-03-12T05:20:27;96850.0;;;3.1;100.0
28456;BME280;15682;56.742;38.866;2023-03-12T05:22:27;96840.0;;;3.1;100.0
28456;BME280;15682;56.742;38.866;2023-03-12T05:24:27;96840.0;;;3.1;100.0
28456;BME280;15682;56.742;38.866;2023-03-12T05:26:28;96840.0;;;3.1;100.0
28456;BME280;15682;56.742;38.866;2023-03-12T05:28:27;96840.0;;;3.1;100.0
28456;BME280;15682;56.742;38.866;2023-03-12T05:30:26;96840.0;;;3.1;100.0
28456;BME280;15682;56.742;38.866;2023-03-12T05:32:26;96840.0;;;3.2;100.0
28456;BME280;15682;56.742;38.866;2023-03-12T05:34:27;96830.0;;;3.2;100.0
28456;BME280;15682;56.742;38.866;2023-03-12T05:36:26;96830.0;;;3.2;100.0
28456;BME280;15682;56.742;38.866;2023-03-12T05:38:27;96830.0;;;3.2;100.0
28456;BME280;15682;56.742;38.866;2023-03-12T05:40:26;96820.0;;;3.2;100.0
28456;BME280;15682;56.742;38.866;2023-03-12T05:42:26;96820.0;;;3.3;100.0
28456;BME280;15682;56.742;38.866;2023-03-12T05:44:26;96820.0;;;3.4;100.0
28456;BME280;15682;56.742;38.866;2023-03-12T05:46:26;96820.0;;;3.4;100.0
28456;BME280;15682;56.742;38.866;2023-03-12T05:48:26;96820.0;;;3.4;100.0
28456;BME280;15682;56.742;38.866;2023-03-12T05:50:26;96810.0;;;3.4;100.0
28456;BME280;15682;56.742;38.866;2023-03-12T05:52:26;96810.0;;;3.4;100.0
28456;BME280;15682;56.742;38.866;2023-03-12T05:54:26;96790.0;;;3.5;100.0
28456;BME280;15682;56.742;38.866;2023-03-12T05:56:26;96790.0;;;3.5;100.0
28456;BME280;15682;56.742;38.866;2023-03-12T05:58:26;96790.0;;;3.5;100.0
28456;BME280;15682;56.742;38.866;2023-03-12T06:00:26;96790.0;;;3.5;100.0
28456;BME280;15682;56.742;38.866;2023-03-12T06:02:26;96790.0;;;3.6;100.0
28456;BME280;15682;56.742;38.866;2023-03-12T06:04:26;96790.0;;;3.6;100.0
28456;BME280;15682;56.742;38.866;2023-03-12T06:06:28;96790.0;;;3.6;100.0
28456;BME280;15682;56.742;38.866;2023-03-12T06:08:26;96790.0;;;3.6;100.0
28456;BME280;15682;56.742;38.866;2023-03-12T06:10:26;96790.0;;;3.6;100.0
28456;BME280;15682;56.742;38.866;2023-03-12T06:12:26;96780.0;;;3.7;100.0
28456;BME280;15682;56.742;38.866;2023-03-12T06:14:26;96770.0;;;3.7;100.0
28456;BME280;15682;56.742;38.866;2023-03-12T06:16:26;96770.0;;;3.7;100.0
28456;BME280;15682;56.742;38.866;2023-03-12T06:18:26;96770.0;;;3.7;100.0
28456;BME280;15682;56.742;38.866;2023-03-12T06:20:26;96770.0;;;3.8;100.0
28456;BME280;15682;56.742;38.866;2023-03-12T06:22:26;96760.0;;;3.8;100.0
28456;BME280;15682;56.742;38.866;2023-03-12T06:24:26;96750.0;;;3.8;100.0
28456;BME280;15682;56.742;38.866;2023-03-12T06:26:26;96750.0;;;3.9;100.0
28456;BME280;15682;56.742;38.866;2023-03-12T06:28:26;96740.0;;;3.9;100.0
28456;BME280;15682;56.742;38.866;2023-03-12T06:30:26;96740.0;;;3.9;100.0
28456;BME280;15682;56.742;38.866;2023-03-12T06:32:26;96740.0;;;3.9;100.0
28456;BME280;15682;56.742;38.866;2023-03-12T06:34:26;96740.0;;;3.9;100.0
28456;BME280;15682;56.742;38.866;2023-03-12T06:36:26;96740.0;;;3.9;100.0
28456;BME280;15682;56.742;38.866;2023-03-12T06:38:26;96740.0;;;4.1;100.0
28456;BME280;15682;56.742;38.866;2023-03-12T06:40:27;96740.0;;;4.1;100.0
28456;BME280;15682;56.742;38.866;2023-03-12T06:42:26;96740.0;;;4.1;99.7
28456;BME280;15682;56.742;38.866;2023-03-12T06:44:26;96740.0;;;4.1;99.7
28456;BME280;15682;56.742;38.866;2023-03-12T06:46:26;96740.0;;;4.1;99.7
28456;BME280;15682;56.742;38.866;2023-03-12T06:48:27;96740.0;;;4.1;99.7
28456;BME280;15682;56.742;38.866;2023-03-12T06:50:25;96740.0;;;4.2;99.7
28456;BME280;15682;56.742;38.866;2023-03-12T06:52:26;96740.0;;;4.2;100.0
28456;BME280;15682;56.742;38.866;2023-03-12T06:54:25;96740.0;;;4.2;100.0
28456;BME280;15682;56.742;38.866;2023-03-12T06:56:25;96740.0;;;4.2;100.0
28456;BME280;15682;56.742;38.866;2023-03-12T06:58:25;96740.0;;;4.2;100.0
28456;BME280;15682;56.742;38.866;2023-03-12T07:00:26;96740.0;;;4.2;100.0
28456;BME280;15682;56.742;38.866;2023-03-12T07:02:25;96730.0;;;4.1;100.0
28456;BME280;15682;56.742;38.866;2023-03-12T07:04:25;96720.0;;;4.1;100.0
28456;BME280;15682;56.742;38.866;2023-03-12T07:06:25;96710.0;;;4.1;100.0
28456;BME280;15682;56.742;38.866;2023-03-12T07:08:26;96720.0;;;4.1;100.0
28456;BME280;15682;56.742;38.866;2023-03-12T07:10:26;96720.0;;;4.1;100.0
28456;BME280;15682;56.742;38.866;2023-03-12T07:12:25;96710.0;;;4.2;100.0
28456;BME280;15682;56.742;38.866;2023-03-12T07:14:25;96710.0;;;4.2;100.0
28456;BME280;15682;56.742;38.866;2023-03-12T07:16:26;96710.0;;;4.2;100.0
28456;BME280;15682;56.742;38.866;2023-03-12T07:18:25;96710.0;;;4.3;100.0
28456;BME280;15682;56.742;38.866;2023-03-12T07:20:25;96710.0;;;4.3;100.0
28456;BME280;15682;56.742;38.866;2023-03-12T07:22:25;96700.0;;;4.3;100.0
28456;BME280;15682;56.742;38.866;2023-03-12T07:24:25;96690.0;;;4.3;100.0
28456;BME280;15682;56.742;38.866;2023-03-12T07:26:25;96690.0;;;4.4;100.0
28456;BME280;15682;56.742;38.866;2023-03-12T07:28:25;96680.0;;;4.4;100.0
28456;BME280;15682;56.742;38.866;2023-03-12T07:30:25;96680.0;;;4.5;100.0
28456;BME280;15682;56.742;38.866;2023-03-12T07:32:25;96680.0;;;4.5;100.0
28456;BME280;15682;56.742;38.866;2023-03-12T07:34:25;96680.0;;;4.5;100.0
28456;BME280;15682;56.742;38.866;2023-03-12T07:36:25;96680.0;;;4.5;100.0
28456;BME280;15682;56.742;38.866;2023-03-12T07:38:25;96670.0;;;4.5;100.0
28456;BME280;15682;56.742;38.866;2023-03-12T07:40:25;96670.0;;;4.5;100.0
28456;BME280;15682;56.742;38.866;2023-03-12T07:42:25;96670.0;;;4.6;100.0
28456;BME280;15682;56.742;38.866;2023-03-12T07:44:25;96660.0;;;4.6;100.0
28456;BME280;15682;56.742;38.866;2023-03-12T07:46:25;96660.0;;;4.6;100.0
28456;BME280;15682;56.742;38.866;2023-03-12T07:48:25;96660.0;;;4.6;100.0
28456;BME280;15682;56.742;38.866;2023-03-12T07:50:25;96660.0;;;4.6;100.0
28456;BME280;15682;56.742;38.866;2023-03-12T07:52:26;96660.0;;;4.6;100.0
28456;BME280;15682;56.742;38.866;2023-03-12T07:54:25;96660.0;;;4.7;100.0
28456;BME280;15682;56.742;38.866;2023-03-12T07:56:25;96630.0;;;4.7;100.0
28456;BME280;15682;56.742;38.866;2023-03-12T07:58:25;96630.0;;;4.7;100.0
28456;BME280;15682;56.742;38.866;2023-03-12T08:00:26;96630.0;;;4.7;100.0
28456;BME280;15682;56.742;38.866;2023-03-12T08:02:25;96630.0;;;4.8;100.0
28456;BME280;15682;56.742;38.866;2023-03-12T08:04:26;96630.0;;;4.8;100.0
28456;BME280;15682;56.742;38.866;2023-03-12T08:06:26;96630.0;;;4.8;100.0
28456;BME280;15682;56.742;38.866;2023-03-12T08:08:26;96630.0;;;4.8;100.0
28456;BME280;15682;56.742;38.866;2023-03-12T08:10:25;96630.0;;;4.8;100.0
28456;BME280;15682;56.742;38.866;2023-03-12T08:12:26;96630.0;;;4.8;100.0
28456;BME280;15682;56.742;38.866;2023-03-12T08:14:26;96630.0;;;4.8;100.0
28456;BME280;15682;56.742;38.866;2023-03-12T08:16:25;96630.0;;;4.8;100.0
28456;BME280;15682;56.742;38.866;2023-03-12T08:18:26;96630.0;;;4.8;100.0
28456;BME280;15682;56.742;38.866;2023-03-12T08:20:25;96630.0;;;4.8;100.0
28456;BME280;15682;56.742;38.866;2023-03-12T08:22:25;96630.0;;;4.8;100.0
28456;BME280;15682;56.742;38.866;2023-03-12T08:24:25;96620.0;;;4.8;100.0
28456;BME280;15682;56.742;38.866;2023-03-12T08:26:26;96610.0;;;4.8;100.0
28456;BME280;15682;56.742;38.866;2023-03-12T08:28:25;96610.0;;;4.8;100.0
28456;BME280;15682;56.742;38.866;2023-03-12T08:30:25;96600.0;;;4.8;100.0
28456;BME280;15682;56.742;38.866;2023-03-12T08:32:25;96600.0;;;4.9;100.0
28456;BME280;15682;56.742;38.866;2023-03-12T08:34:25;96600.0;;;4.9;100.0
28456;BME280;15682;56.742;38.866;2023-03-12T08:36:26;96600.0;;;4.9;100.0
28456;BME280;15682;56.742;38.866;2023-03-12T08:38:25;96600.0;;;4.9;100.0
28456;BME280;15682;56.742;38.866;2023-03-12T08:40:25;96600.0;;;4.9;100.0
28456;BME280;15682;56.742;38.866;2023-03-12T08:42:25;96600.0;;;4.8;100.0
28456;BME280;15682;56.742;38.866;2023-03-12T08:44:26;96580.0;;;4.8;100.0
28456;BME280;15682;56.742;38.866;2023-03-12T08:46:25;96580.0;;;4.8;100.0
28456;BME280;15682;56.742;38.866;2023-03-12T08:48:26;96580.0;;;4.8;100.0
28456;BME280;15682;56.742;38.866;2023-03-12T08:50:25;96580.0;;;4.8;100.0
28456;BME280;15682;56.742;38.866;2023-03-12T08:52:25;96580.0;;;4.8;100.0
28456;BME280;15682;56.742;38.866;2023-03-12T08:54:25;96580.0;;;4.8;100.0
28456;BME280;15682;56.742;38.866;2023-03-12T08:56:25;96580.0;;;4.9;100.0
28456;BME280;15682;56.742;38.866;2023-03-12T08:58:26;96580.0;;;4.9;100.0
28456;BME280;15682;56.742;38.866;2023-03-12T09:00:25;96560.0;;;4.9;100.0
28456;BME280;15682;56.742;38.866;2023-03-12T09:02:25;96560.0;;;4.9;100.0
28456;BME280;15682;56.742;38.866;2023-03-12T09:04:25;96560.0;;;4.9;100.0
28456;BME280;15682;56.742;38.866;2023-03-12T09:06:25;96560.0;;;4.9;100.0
28456;BME280;15682;56.742;38.866;2023-03-12T09:08:25;96550.0;;;4.9;100.0
28456;BME280;15682;56.742;38.866;2023-03-12T09:10:25;96550.0;;;4.9;100.0
28456;BME280;15682;56.742;38.866;2023-03-12T09:12:25;96550.0;;;5.0;100.0
28456;BME280;15682;56.742;38.866;2023-03-12T09:14:25;96550.0;;;5.0;100.0
28456;BME280;15682;56.742;38.866;2023-03-12T09:16:26;96550.0;;;5.0;100.0
28456;BME280;15682;56.742;38.866;2023-03-12T09:18:26;96550.0;;;5.0;100.0
28456;BME280;15682;56.742;38.866;2023-03-12T09:20:25;96550.0;;;5.0;100.0
28456;BME280;15682;56.742;38.866;2023-03-12T09:22:26;96550.0;;;5.0;100.0
28456;BME280;15682;56.742;38.866;2023-03-12T09:24:25;96530.0;;;5.0;100.0
28456;BME280;15682;56.742;38.866;2023-03-12T09:26:25;96530.0;;;5.0;100.0
28456;BME280;15682;56.742;38.866;2023-03-12T09:28:25;96520.0;;;5.0;100.0
28456;BME280;15682;56.742;38.866;2023-03-12T09:30:25;96530.0;;;5.0;100.0
28456;BME280;15682;56.742;38.866;2023-03-12T09:32:25;96530.0;;;5.1;100.0
28456;BME280;15682;56.742;38.866;2023-03-12T09:34:25;96530.0;;;5.1;100.0
28456;BME280;15682;56.742;38.866;2023-03-12T09:36:25;96520.0;;;5.1;100.0
28456;BME280;15682;56.742;38.866;2023-03-12T09:38:26;96520.0;;;5.1;100.0
28456;BME280;15682;56.742;38.866;2023-03-12T09:40:29;96520.0;;;5.1;100.0
28456;BME280;15682;56.742;38.866;2023-03-12T09:42:38;96510.0;;;5.3;100.0
28456;BME280;15682;56.742;38.866;2023-03-12T09:44:30;96500.0;;;5.4;100.0
28456;BME280;15682;56.742;38.866;2023-03-12T09:46:28;96500.0;;;5.4;100.0
28456;BME280;15682;56.742;38.866;2023-03-12T09:48:31;96500.0;;;5.4;100.0
28456;BME280;15682;56.742;38.866;2023-03-12T09:50:28;96490.0;;;5.4;100.0
28456;BME280;15682;56.742;38.866;2023-03-12T09:52:29;96490.0;;;5.4;100.0
28456;BME280;15682;56.742;38.866;2023-03-12T09:54:28;96480.0;;;5.4;100.0
28456;BME280;15682;56.742;38.866;2023-03-12T09:56:26;96480.0;;;5.4;100.0
28456;BME280;15682;56.742;38.866;2023-03-12T09:58:28;96470.0;;;5.4;99.1
28456;BME280;15682;56.742;38.866;2023-03-12T10:00:29;96470.0;;;5.4;99.1
28456;BME280;15682;56.742;38.866;2023-03-12T10:02:52;96460.0;;;5.6;98.6
28456;BME280;15682;56.742;38.866;2023-03-12T10:04:33;96450.0;;;5.6;98.6
28456;BME280;15682;56.742;38.866;2023-03-12T10:06:29;96450.0;;;5.6;98.6
28456;BME280;15682;56.742;38.866;2023-03-12T10:08:32;96440.0;;;5.6;98.6
28456;BME280;15682;56.742;38.866;2023-03-12T10:10:33;96440.0;;;5.6;98.6
28456;BME280;15682;56.742;38.866;2023-03-12T10:12:33;96440.0;;;5.7;98.5
28456;BME280;15682;56.742;38.866;2023-03-12T10:14:33;96440.0;;;5.7;98.5
28456;BME280;15682;56.742;38.866;2023-03-12T10:16:37;96430.0;;;5.7;98.0
28456;BME280;15682;56.742;38.866;2023-03-12T10:18:37;96420.0;;;5.8;98.0
28456;BME280;15682;56.742;38.866;2023-03-12T10:20:36;96420.0;;;5.8;98.0
28456;BME280;15682;56.742;38.866;2023-03-12T10:22:32;96420.0;;;5.9;97.3
28456;BME280;15682;56.742;38.866;2023-03-12T10:24:38;96410.0;;;5.8;97.3
28456;BME280;15682;56.742;38.866;2023-03-12T10:26:29;96410.0;;;5.7;97.8
28456;BME280;15682;56.742;38.866;2023-03-12T10:28:32;96410.0;;;5.7;97.8
28456;BME280;15682;56.742;38.866;2023-03-12T10:30:28;96410.0;;;5.7;97.8
28456;BME280;15682;56.742;38.866;2023-03-12T10:32:31;96410.0;;;5.6;98.4
28456;BME280;15682;56.742;38.866;2023-03-12T10:34:30;96410.0;;;5.8;98.4
28456;BME280;15682;56.742;38.866;2023-03-12T10:36:28;96400.0;;;5.9;97.7
28456;BME280;15682;56.742;38.866;2023-03-12T10:38:28;96390.0;;;5.8;97.7
28456;BME280;15682;56.742;38.866;2023-03-12T10:40:28;96390.0;;;5.8;97.7
28456;BME280;15682;56.742;38.866;2023-03-12T10:42:27;96380.0;;;5.8;97.6
28456;BME280;15682;56.742;38.866;2023-03-12T10:44:26;96370.0;;;5.8;97.6
28456;BME280;15682;56.742;38.866;2023-03-12T10:46:38;96360.0;;;5.8;97.6
28456;BME280;15682;56.742;38.866;2023-03-12T10:48:26;96360.0;;;5.8;97.6
28456;BME280;15682;56.742;38.866;2023-03-12T10:50:29;96360.0;;;5.8;97.6
28456;BME280;15682;56.742;38.866;2023-03-12T10:52:26;96360.0;;;5.8;97.8
28456;BME280;15682;56.742;38.866;2023-03-12T10:54:29;96350.0;;;5.8;97.8
28456;BME280;15682;56.742;38.866;2023-03-12T10:56:26;96350.0;;;5.8;97.8